Time;durP1;ratioP1;P1;durP2;ratioP2;P2;SDS_P1;SDS_P2;PMS_P1;PMS_P2;Temp;Humidity;BMP_temperature;BMP_pressure;BME280_temperature;BME280_humidity;BME280_pressure;Samples;Min_cycle;Max_cycle;Signal;HPM_P1;HPM_P2
2022/07/04 00:01:42;;;;;;;;;;;;;;;16.00;100.00;101070.17;1754272;81;20198;-88
2022/07/04 00:04:09;;;;;;;;;;;;;;;16.02;100.00;101069.55;1754591;81;20142;-87
2022/07/04 00:06:38;;;;;;;;;;;;;;;16.07;100.00;101072.58;1762754;80;20153;-88
2022/07/04 00:09:04;;;;;;;;;;;;;;;16.12;100.00;101071.34;1763081;80;20186;-87
2022/07/04 00:11:32;;;;;;;;;;;;;;;16.18;100.00;101072.93;1758563;80;21188;-88
2022/07/04 00:13:59;;;;;;;;;;;;;;;16.25;100.00;101073.17;1757886;80;20155;-86
2022/07/04 00:16:26;;;;;;;;;;;;;;;16.29;100.00;101075.88;1758605;80;20183;-87
2022/07/04 00:18:53;;;;;;;;;;;;;;;16.35;100.00;101070.05;1759254;80;20542;-87
2022/07/04 00:21:20;;;;;;;;;;;;;;;16.41;100.00;101075.23;1757940;80;20171;-86
2022/07/04 00:23:47;;;;;;;;;;;;;;;16.45;100.00;101079.71;1755966;80;21178;-87
2022/07/04 00:26:14;;;;;;;;;;;;;;;16.49;100.00;101072.72;1757204;80;20175;-88
2022/07/04 00:28:40;;;;;;;;;;;;;;;16.54;100.00;101073.60;1755269;80;20428;-86
2022/07/04 00:31:07;;;;;;;;;;;;;;;16.59;100.00;101072.67;1745185;82;20158;-87
2022/07/04 00:33:34;;;;;;;;;;;;;;;16.65;100.00;101069.97;1745766;82;20178;-87
2022/07/04 00:36:01;;;;;;;;;;;;;;;16.70;100.00;101065.91;1745494;82;21149;-87
2022/07/04 00:38:28;;;;;;;;;;;;;;;16.73;100.00;101068.75;1745113;82;20159;-86
2022/07/04 00:40:55;;;;;;;;;;;;;;;16.75;100.00;101066.79;1745310;82;20460;-87
2022/07/04 00:43:26;;;;;;;;;;;;;;;16.78;100.00;101064.37;1745541;82;20167;-87
2022/07/04 00:45:53;;;;;;;;;;;;;;;16.80;100.00;101065.89;1745127;82;20198;-87
2022/07/04 00:48:20;;;;;;;;;;;;;;;16.83;100.00;101065.58;1745195;82;21208;-87
2022/07/04 00:50:48;;;;;;;;;;;;;;;16.86;100.00;101068.42;1745200;82;20159;-87
2022/07/04 00:53:15;;;;;;;;;;;;;;;16.87;100.00;101058.22;1745448;82;20216;-90
2022/07/04 00:55:41;;;;;;;;;;;;;;;16.91;100.00;101062.23;1745293;82;20246;-86
2022/07/04 00:58:09;;;;;;;;;;;;;;;16.93;100.00;101059.48;1774124;80;20175;-86
2022/07/04 01:00:36;;;;;;;;;;;;;;;16.95;100.00;101058.85;1776185;80;21141;-87
2022/07/04 01:03:03;;;;;;;;;;;;;;;16.96;100.00;101060.02;1775844;80;20461;-86
2022/07/04 01:05:29;;;;;;;;;;;;;;;16.95;100.00;101062.80;1776238;80;20144;-87
2022/07/04 01:07:57;;;;;;;;;;;;;;;16.91;100.00;101060.92;1776297;80;20161;-87
2022/07/04 01:10:24;;;;;;;;;;;;;;;16.85;100.00;101066.77;1771335;80;20173;-86
2022/07/04 01:12:51;;;;;;;;;;;;;;;16.78;100.00;101069.14;1776220;80;21075;-86
2022/07/04 01:15:18;;;;;;;;;;;;;;;16.72;100.00;101066.59;1776062;80;20175;-87
2022/07/04 01:17:45;;;;;;;;;;;;;;;16.66;100.00;101072.44;1776559;80;20171;-86
2022/07/04 01:20:13;;;;;;;;;;;;;;;16.60;100.00;101065.14;1766748;80;20169;-88
2022/07/04 01:22:41;;;;;;;;;;;;;;;16.58;100.00;101067.57;1762771;81;20169;-86
2022/07/04 01:25:11;;;;;;;;;;;;;;;16.53;100.00;101072.75;1762679;81;21184;-87
2022/07/04 01:27:38;;;;;;;;;;;;;;;16.50;100.00;101061.70;1762442;80;20571;-88
2022/07/04 01:30:05;;;;;;;;;;;;;;;16.47;100.00;101074.65;1762637;81;20236;-86
2022/07/04 01:32:32;;;;;;;;;;;;;;;16.44;100.00;101074.11;1762727;80;20233;-87
2022/07/04 01:34:59;;;;;;;;;;;;;;;16.43;100.00;101080.33;1762637;80;20200;-87
2022/07/04 01:37:26;;;;;;;;;;;;;;;16.35;100.00;101079.25;1762666;80;21758;-87
2022/07/04 01:39:52;;;;;;;;;;;;;;;16.22;100.00;101080.05;1763121;81;20495;-88
2022/07/04 01:42:20;;;;;;;;;;;;;;;16.15;100.00;101079.77;1741567;79;20188;-87
2022/07/04 01:44:47;;;;;;;;;;;;;;;16.14;100.00;101087.80;1732587;83;20614;-88
2022/07/04 01:47:14;;;;;;;;;;;;;;;16.14;100.00;101082.55;1732560;82;20167;-87
2022/07/04 01:49:41;;;;;;;;;;;;;;;16.14;100.00;101083.86;1732581;81;21851;-87
2022/07/04 01:52:08;;;;;;;;;;;;;;;16.15;100.00;101083.70;1732447;82;20199;-87
2022/07/04 01:54:35;;;;;;;;;;;;;;;16.19;100.00;101082.94;1758967;81;20526;-87
2022/07/04 01:57:08;;;;;;;;;;;;;;;16.23;100.00;101086.93;1762873;81;20193;-87
2022/07/04 02:02:25;;;;;;;;;;;;;;;16.30;100.00;101096.40;1762605;80;20275;-87
2022/07/04 02:04:52;;;;;;;;;;;;;;;16.34;100.00;101100.42;1762718;80;20153;-87
2022/07/04 02:07:19;;;;;;;;;;;;;;;16.37;100.00;101102.75;1763096;80;20224;-88
2022/07/04 02:09:46;;;;;;;;;;;;;;;16.40;100.00;101099.84;1762569;81;20327;-87
2022/07/04 02:14:58;;;;;;;;;;;;;;;16.47;100.00;101102.72;1762723;81;21140;-88
2022/07/04 02:17:27;;;;;;;;;;;;;;;16.50;100.00;101098.50;1762540;81;20199;-87
2022/07/04 02:22:39;;;;;;;;;;;;;;;16.56;100.00;101099.23;1776046;80;20184;-86
2022/07/04 02:25:06;;;;;;;;;;;;;;;16.60;100.00;101098.47;1775975;80;20176;-87
2022/07/04 02:27:34;;;;;;;;;;;;;;;16.63;100.00;101102.95;1775884;80;20758;-87
2022/07/04 02:30:02;;;;;;;;;;;;;;;16.67;100.00;101106.97;1776161;80;20172;-88
2022/07/04 02:32:29;;;;;;;;;;;;;;;16.71;100.00;101108.82;1776220;80;20141;-87
2022/07/04 02:34:56;;;;;;;;;;;;;;;16.72;100.00;101108.67;1776262;80;20168;-90
2022/07/04 02:37:22;;;;;;;;;;;;;;;16.68;100.00;101104.68;1775888;80;20160;-89
2022/07/04 02:39:49;;;;;;;;;;;;;;;16.64;100.00;101105.92;1776450;80;21804;-89
2022/07/04 02:42:16;;;;;;;;;;;;;;;16.59;100.00;101106.84;1775746;80;20648;-87
2022/07/04 02:44:44;;;;;;;;;;;;;;;16.56;100.00;101106.66;1790258;79;20197;-89
2022/07/04 02:47:11;;;;;;;;;;;;;;;16.56;100.00;101104.50;1757050;81;20177;-87
2022/07/04 02:49:38;;;;;;;;;;;;;;;16.55;100.00;101105.46;1789800;79;20484;-87
2022/07/04 02:52:05;;;;;;;;;;;;;;;16.53;100.00;101100.86;1757274;81;21146;-87
2022/07/04 02:54:32;;;;;;;;;;;;;;;16.54;100.00;101105.15;1790078;80;20169;-86
2022/07/04 02:56:58;;;;;;;;;;;;;;;16.58;100.00;101101.75;1757077;81;20478;-89
2022/07/04 02:59:25;;;;;;;;;;;;;;;16.63;100.00;101104.27;1789835;79;20149;-89
2022/07/04 03:01:52;;;;;;;;;;;;;;;16.70;100.00;101107.16;1757106;81;20194;-89
2022/07/04 03:04:19;;;;;;;;;;;;;;;16.77;100.00;101099.53;1789954;79;21108;-88
2022/07/04 03:06:46;;;;;;;;;;;;;;;16.85;100.00;101100.95;1764036;81;20164;-87
2022/07/04 03:09:12;;;;;;;;;;;;;;;16.95;100.00;101100.94;1764818;81;20524;-88
2022/07/04 03:11:41;;;;;;;;;;;;;;;17.03;100.00;101101.86;1764578;81;20520;-88
2022/07/04 03:14:08;;;;;;;;;;;;;;;17.14;100.00;101105.27;1764648;81;20251;-88
2022/07/04 03:16:35;;;;;;;;;;;;;;;17.26;100.00;101108.53;1764863;81;21158;-86
2022/07/04 03:19:02;;;;;;;;;;;;;;;17.37;100.00;101105.70;1764436;81;20142;-87
2022/07/04 03:21:29;;;;;;;;;;;;;;;17.50;100.00;101102.22;1773525;81;20172;-89
2022/07/04 03:23:59;;;;;;;;;;;;;;;17.63;100.00;101100.53;1774103;80;20164;-88
2022/07/04 03:26:27;;;;;;;;;;;;;;;17.77;100.00;101094.39;1774062;81;20514;-86
2022/07/04 03:28:54;;;;;;;;;;;;;;;17.91;100.00;101099.13;1774237;81;21146;-87
2022/07/04 03:31:21;;;;;;;;;;;;;;;18.04;100.00;101090.86;1774131;81;20181;-86
2022/07/04 03:33:47;;;;;;;;;;;;;;;18.19;100.00;101101.69;1774432;81;20141;-86
2022/07/04 03:36:14;;;;;;;;;;;;;;;18.34;100.00;101102.44;1773947;81;20172;-86
2022/07/04 03:38:41;;;;;;;;;;;;;;;18.49;100.00;101096.94;1774458;81;20169;-86
2022/07/04 03:41:08;;;;;;;;;;;;;;;18.65;100.00;101096.22;1773787;81;21264;-86
2022/07/04 03:43:36;;;;;;;;;;;;;;;18.81;100.00;101094.13;1773856;81;20175;-86
2022/07/04 03:46:03;;;;;;;;;;;;;;;18.98;100.00;101094.23;1774095;81;20184;-86
2022/07/04 03:48:31;;;;;;;;;;;;;;;19.12;100.00;101084.89;1774012;81;20165;-87
2022/07/04 03:50:58;;;;;;;;;;;;;;;19.24;100.00;101084.91;1774240;81;20144;-86
2022/07/04 03:53:25;;;;;;;;;;;;;;;19.38;100.00;101092.23;1774072;81;21810;-86
2022/07/04 03:55:51;;;;;;;;;;;;;;;19.53;100.00;101087.63;1774230;81;20181;-86
2022/07/04 03:58:18;;;;;;;;;;;;;;;19.67;100.00;101090.09;1774024;81;20200;-86
2022/07/04 04:00:46;;;;;;;;;;;;;;;19.81;100.00;101089.47;1749925;81;39641;-86
2022/07/04 04:05:44;;;;;;;;;;;;;;;20.09;100.00;101087.83;1757041;80;21257;-86
2022/07/04 04:08:13;;;;;;;;;;;;;;;20.21;100.00;101086.17;1773403;80;20161;-85
2022/07/04 04:10:40;;;;;;;;;;;;;;;20.30;100.00;101087.81;1774134;81;20149;-86
2022/07/04 04:13:07;;;;;;;;;;;;;;;20.40;100.00;101089.76;1774153;81;20131;-86
2022/07/04 04:15:34;;;;;;;;;;;;;;;20.54;100.00;101092.72;1774109;81;20196;-85
2022/07/04 04:18:01;;;;;;;;;;;;;;;20.64;100.00;101092.85;1774208;81;21170;-86
2022/07/04 04:20:27;;;;;;;;;;;;;;;20.74;100.00;101081.28;1769935;80;20161;-87
2022/07/04 04:22:54;;;;;;;;;;;;;;;20.82;100.00;101087.02;1765015;81;20168;-87
2022/07/04 04:25:21;;;;;;;;;;;;;;;20.85;100.00;101090.16;1764659;81;20201;-86
2022/07/04 04:27:48;;;;;;;;;;;;;;;20.92;100.00;101091.63;1764976;81;20146;-86
2022/07/04 04:30:14;;;;;;;;;;;;;;;20.96;100.00;101091.59;1764348;81;21141;-87
2022/07/04 04:32:43;;;;;;;;;;;;;;;21.04;100.00;101084.94;1764552;81;20181;-86
2022/07/04 04:35:10;;;;;;;;;;;;;;;21.16;100.00;101089.85;1764397;81;20141;-86
2022/07/04 04:37:36;;;;;;;;;;;;;;;21.26;100.00;101083.84;1757230;81;20181;-87
2022/07/04 04:40:04;;;;;;;;;;;;;;;21.36;100.00;101084.42;1781457;80;20150;-86
2022/07/04 04:42:31;;;;;;;;;;;;;;;21.48;100.00;101089.33;1746905;82;21809;-86
2022/07/04 04:44:57;;;;;;;;;;;;;;;21.60;100.00;101086.61;1744498;82;20198;-86
2022/07/04 04:47:24;;;;;;;;;;;;;;;21.70;100.00;101085.88;1740741;80;20140;-86
2022/07/04 04:49:51;;;;;;;;;;;;;;;21.78;100.00;101086.81;1806931;78;20161;-85
2022/07/04 04:52:18;;;;;;;;;;;;;;;21.84;100.00;101080.31;1807119;79;20165;-87
2022/07/04 04:54:44;;;;;;;;;;;;;;;;;;1806602;79;21110;-86
2022/07/04 04:57:11;;;;;;;;;;;;;;;22.04;100.00;101083.77;1806897;79;20129;-86
2022/07/04 04:59:38;;;;;;;;;;;;;;;22.14;100.00;101083.02;1807455;79;20176;-86
2022/07/04 05:02:05;;;;;;;;;;;;;;;22.24;100.00;101082.75;1807088;79;20160;-86
2022/07/04 05:04:32;;;;;;;;;;;;;;;22.32;100.00;101078.69;1807299;78;20125;-85
2022/07/04 05:06:58;;;;;;;;;;;;;;;22.40;100.00;101084.94;1807045;78;21108;-87
2022/07/04 05:09:25;;;;;;;;;;;;;;;22.46;100.00;101085.05;1807113;79;20172;-86
2022/07/04 05:11:52;;;;;;;;;;;;;;;22.57;100.00;101079.78;1796338;79;20481;-87
2022/07/04 05:14:21;;;;;;;;;;;;;;;22.71;100.00;101082.62;1782600;79;20132;-87
2022/07/04 05:16:47;;;;;;;;;;;;;;;22.82;100.00;101083.47;1773646;79;20156;-87
2022/07/04 05:19:14;;;;;;;;;;;;;;;22.92;100.00;101078.70;1731112;82;21198;-87
2022/07/04 05:21:41;;;;;;;;;;;;;;;23.07;100.00;101082.66;1739345;81;20204;-87
2022/07/04 05:24:08;;;;;;;;;;;;;;;23.20;100.00;101084.65;1730981;82;20165;-87
2022/07/04 05:26:35;;;;;;;;;;;;;;;23.34;100.00;101076.32;1745520;81;20453;-87
2022/07/04 05:29:02;;;;;;;;;;;;;;;23.47;100.00;101076.44;1757399;81;20170;-88
2022/07/04 05:31:29;;;;;;;;;;;;;;;23.62;100.00;101079.56;1760111;80;21826;-87
2022/07/04 05:33:58;;;;;;;;;;;;;;;23.74;100.00;101074.55;1759977;81;20160;-87
2022/07/04 05:36:26;;;;;;;;;;;;;;;23.85;100.00;101076.67;1760086;81;20142;-87
2022/07/04 05:38:52;;;;;;;;;;;;;;;24.01;100.00;101072.11;1760002;81;20491;-86
2022/07/04 05:41:19;;;;;;;;;;;;;;;24.14;100.00;101066.91;1760161;81;20228;-88
2022/07/04 05:43:46;;;;;;;;;;;;;;;24.29;100.00;101068.63;1760094;81;21099;-87
2022/07/04 05:46:13;;;;;;;;;;;;;;;24.43;100.00;101066.35;1759986;81;20143;-87
2022/07/04 05:48:40;;;;;;;;;;;;;;;24.54;100.00;101065.81;1760187;81;20217;-88
2022/07/04 05:51:07;;;;;;;;;;;;;;;24.69;100.00;101064.35;1760175;81;20153;-87
2022/07/04 05:53:36;;;;;;;;;;;;;;;24.81;100.00;101063.27;1759945;81;20162;-88
2022/07/04 05:56:04;;;;;;;;;;;;;;;24.95;100.00;101054.02;1760121;81;21286;-88
2022/07/04 05:58:31;;;;;;;;;;;;;;;25.07;100.00;101057.73;1759843;81;20222;-88
2022/07/04 06:00:57;;;;;;;;;;;;;;;25.22;100.00;101054.06;1760297;81;20135;-89
2022/07/04 06:03:24;;;;;;;;;;;;;;;25.37;100.00;101049.38;1759954;81;20150;-87
2022/07/04 06:05:52;;;;;;;;;;;;;;;25.53;100.00;101050.03;1760252;79;20228;-89
2022/07/04 06:08:20;;;;;;;;;;;;;;;25.69;100.00;101042.95;1760159;81;21800;-88
2022/07/04 06:10:47;;;;;;;;;;;;;;;25.83;100.00;101043.28;1759966;81;20146;-88
2022/07/04 06:13:14;;;;;;;;;;;;;;;25.95;100.00;101039.47;1760027;79;20173;-88
2022/07/04 06:15:40;;;;;;;;;;;;;;;26.07;100.00;101035.66;1760148;81;20617;-89
2022/07/04 06:18:08;;;;;;;;;;;;;;;26.21;100.00;101035.64;1760174;81;20138;-88
2022/07/04 06:20:35;;;;;;;;;;;;;;;26.34;100.00;101035.59;1757816;79;21176;-88
2022/07/04 06:23:02;;;;;;;;;;;;;;;26.47;100.00;101031.26;1749104;80;20170;-90
2022/07/04 06:25:29;;;;;;;;;;;;;;;26.57;100.00;101030.27;1748846;82;20182;-88
2022/07/04 06:27:56;;;;;;;;;;;;;;;26.70;100.00;101031.57;1749074;82;20841;-90
2022/07/04 06:30:23;;;;;;;;;;;;;;;26.83;100.00;101025.88;1749319;82;20163;-88
2022/07/04 06:32:52;;;;;;;;;;;;;;;26.92;100.00;101024.06;1749217;81;21134;-89
2022/07/04 06:38:08;;;;;;;;;;;;;;;27.11;100.00;101028.70;1748872;82;20439;-88
2022/07/04 06:40:35;;;;;;;;;;;;;;;27.22;100.00;101030.16;1749263;82;20163;-88
2022/07/04 06:43:04;;;;;;;;;;;;;;;27.32;96.83;101031.55;1749010;81;20163;-90
2022/07/04 06:45:31;;;;;;;;;;;;;;;27.37;92.84;101022.34;1753897;80;21213;-88
2022/07/04 06:47:58;;;;;;;;;;;;;;;27.42;96.10;101029.72;1748555;80;20167;-91
2022/07/04 06:50:25;;;;;;;;;;;;;;;27.51;99.99;101025.23;1749436;80;20189;-93
2022/07/04 06:52:52;;;;;;;;;;;;;;;27.63;100.00;101024.53;1761652;80;20610;-92
2022/07/04 06:55:34;;;;;;;;;;;;;;;27.72;96.56;101021.89;1755856;80;20198;-92
2022/07/04 06:58:01;;;;;;;;;;;;;;;27.79;98.25;101018.62;1765911;80;21006;-87
2022/07/04 07:00:32;;;;;;;;;;;;;;;27.86;92.17;101015.87;1753100;80;20138;-89
2022/07/04 07:03:00;;;;;;;;;;;;;;;27.98;90.85;101015.45;1753616;80;20133;-89
2022/07/04 07:05:28;;;;;;;;;;;;;;;28.09;92.89;101017.94;1748965;82;20608;-88
2022/07/04 07:07:55;;;;;;;;;;;;;;;28.18;92.96;101018.44;1749218;82;20161;-93
2022/07/04 07:10:22;;;;;;;;;;;;;;;28.29;95.46;101017.70;1762885;80;21833;-91
2022/07/04 07:12:49;;;;;;;;;;;;;;;28.39;88.96;101013.69;1771453;80;20178;-90
2022/07/04 07:15:16;;;;;;;;;;;;;;;28.43;82.26;101017.54;1766649;80;20194;-90
2022/07/04 07:17:44;;;;;;;;;;;;;;;28.44;78.66;101016.50;1775052;80;20192;-91
2022/07/04 07:20:13;;;;;;;;;;;;;;;28.46;79.77;101015.23;1760567;80;20502;-91
2022/07/04 07:22:41;;;;;;;;;;;;;;;28.51;84.01;101016.42;1772343;80;21136;-87
2022/07/04 07:25:12;;;;;;;;;;;;;;;28.59;84.82;101018.27;1772797;81;20186;-87
2022/07/04 07:27:40;;;;;;;;;;;;;;;28.69;86.66;101016.91;1754049;81;20140;-87
2022/07/04 07:30:08;;;;;;;;;;;;;;;28.76;85.17;101019.80;1743251;81;20848;-88
2022/07/04 07:32:35;;;;;;;;;;;;;;;28.84;83.18;101029.40;1742749;82;20371;-89
2022/07/04 07:35:02;;;;;;;;;;;;;;;28.90;80.62;101022.32;1742224;82;21269;-87
2022/07/04 07:37:30;;;;;;;;;;;;;;;28.93;74.28;101024.02;1742905;82;20227;-88
2022/07/04 07:39:57;;;;;;;;;;;;;;;29.01;83.86;101027.42;1742772;82;20138;-88
2022/07/04 07:42:26;;;;;;;;;;;;;;;29.13;73.06;101025.57;1742987;82;20451;-88
2022/07/04 07:44:53;;;;;;;;;;;;;;;29.19;72.24;101019.82;1743126;82;20507;-88
2022/07/04 07:47:25;;;;;;;;;;;;;;;29.19;71.60;101019.31;1746845;81;21129;-88
2022/07/04 07:49:53;;;;;;;;;;;;;;;29.22;72.41;101015.35;1760714;81;20168;-87
2022/07/04 07:52:19;;;;;;;;;;;;;;;29.30;70.18;101019.55;1753984;81;20215;-87
2022/07/04 07:54:46;;;;;;;;;;;;;;;29.38;68.67;101012.53;1753960;81;20182;-87
2022/07/04 07:57:13;;;;;;;;;;;;;;;29.46;67.08;101020.23;1754071;81;20148;-88
2022/07/04 07:59:41;;;;;;;;;;;;;;;29.51;66.54;101010.98;1756788;80;21192;-87
2022/07/04 08:02:07;;;;;;;;;;;;;;;29.58;63.35;101010.86;1742708;82;20139;-88
2022/07/04 08:04:35;;;;;;;;;;;;;;;29.63;69.10;101007.47;1768150;81;20133;-87
2022/07/04 08:07:11;;;;;;;;;;;;;;;29.56;65.38;101011.09;1759535;79;20198;-88
2022/07/04 08:09:39;;;;;;;;;;;;;;;29.42;66.05;101004.33;1751348;81;20170;-87
2022/07/04 08:12:08;;;;;;;;;;;;;;;29.37;64.35;101005.02;1759071;81;21169;-87
2022/07/04 08:14:40;;;;;;;;;;;;;;;29.45;70.14;101004.38;1753360;81;20133;-88
2022/07/04 08:17:10;;;;;;;;;;;;;;;29.56;68.35;101000.36;1751713;81;20167;-89
2022/07/04 08:19:36;;;;;;;;;;;;;;;29.70;67.43;100996.93;1748606;80;20190;-88
2022/07/04 08:22:03;;;;;;;;;;;;;;;29.81;69.07;100999.81;1751684;81;20191;-88
2022/07/04 08:24:38;;;;;;;;;;;;;;;29.87;61.94;100997.02;1766013;80;21155;-88
2022/07/04 08:27:06;;;;;;;;;;;;;;;29.96;63.85;100997.52;1770780;80;20158;-88
2022/07/04 08:29:37;;;;;;;;;;;;;;;30.05;61.63;100997.96;1762443;80;20198;-89
2022/07/04 08:32:07;;;;;;;;;;;;;;;30.10;62.98;100999.40;1762905;80;20403;-88
2022/07/04 08:34:34;;;;;;;;;;;;;;;30.18;58.85;101005.74;1750142;80;20154;-88
2022/07/04 08:37:29;;;;;;;;;;;;;;;30.28;57.76;101001.63;1753802;80;21149;-88
2022/07/04 08:40:27;;;;;;;;;;;;;;;30.33;56.24;100997.70;1749828;82;20160;-87
2022/07/04 08:46:51;;;;;;;;;;;;;;;30.56;54.31;100996.03;1753103;80;20122;-88
2022/07/04 08:52:58;;;;;;;;;;;;;;;30.82;56.54;100986.55;1757873;80;22137;-87
2022/07/04 08:58:31;;;;;;;;;;;;;;;31.10;52.71;100988.91;1774668;80;20506;-89
2022/07/04 09:01:43;;;;;;;;;;;;;;;31.25;54.58;100983.78;1749955;80;20206;-88
2022/07/04 09:04:43;;;;;;;;;;;;;;;31.33;56.86;100987.14;1750056;82;20150;-88
2022/07/04 09:07:14;;;;;;;;;;;;;;;31.36;54.70;100972.67;1774860;80;21156;-88
2022/07/04 09:09:46;;;;;;;;;;;;;;;31.49;52.54;100980.10;1763706;80;20253;-88
2022/07/04 09:12:15;;;;;;;;;;;;;;;31.61;53.44;100976.77;1760943;80;20434;-89
2022/07/04 09:14:42;;;;;;;;;;;;;;;31.71;54.16;100978.29;1763242;80;20241;-88
2022/07/04 09:17:09;;;;;;;;;;;;;;;31.75;51.13;100978.60;1749436;82;20430;-89
2022/07/04 09:19:37;;;;;;;;;;;;;;;31.71;52.25;100983.67;1749509;82;21228;-89
2022/07/04 09:22:11;;;;;;;;;;;;;;;31.67;49.56;100979.03;1763989;80;20418;-89
2022/07/04 09:24:51;;;;;;;;;;;;;;;31.62;50.11;100977.05;1758450;80;20199;-87
2022/07/04 09:27:33;;;;;;;;;;;;;;;31.63;50.51;100974.64;1784778;80;20528;-88
2022/07/04 09:30:01;;;;;;;;;;;;;;;31.60;47.99;100977.85;1782965;80;20591;-89
2022/07/04 09:32:41;;;;;;;;;;;;;;;31.58;52.09;100979.42;1773696;80;21127;-89
2022/07/04 09:35:14;;;;;;;;;;;;;;;31.60;50.32;100976.51;1766254;81;20184;-89
2022/07/04 09:41:58;;;;;;;;;;;;;;;30.82;50.87;100976.61;1753938;82;20176;-88
2022/07/04 09:48:51;;;;;;;;;;;;;;;30.81;49.97;100974.97;1753985;82;20210;-89
2022/07/04 09:56:05;;;;;;;;;;;;;;;31.33;47.40;100969.66;1753867;82;20159;-88
2022/07/04 10:02:32;;;;;;;;;;;;;;;31.70;48.23;100967.23;1739261;82;20159;-89
2022/07/04 10:13:14;;;;;;;;;;;;;;;32.25;47.71;100960.13;1764081;80;20521;-89
2022/07/04 10:15:42;;;;;;;;;;;;;;;32.08;45.57;100958.84;1760865;80;20431;-90
2022/07/04 10:18:48;;;;;;;;;;;;;;;31.79;45.77;100962.25;1761313;81;20220;-89
2022/07/04 10:21:19;;;;;;;;;;;;;;;31.76;46.08;100954.16;1729987;82;21151;-89
2022/07/04 10:27:52;;;;;;;;;;;;;;;31.98;44.75;100947.12;1739371;82;20465;-89
2022/07/04 10:34:08;;;;;;;;;;;;;;;32.13;45.08;100946.48;1738917;82;20476;-88
2022/07/04 10:36:35;;;;;;;;;;;;;;;31.85;44.72;100936.22;1739571;82;21150;-90
2022/07/04 10:43:34;;;;;;;;;;;;;;;31.82;47.58;100932.13;1739357;82;20226;-90
2022/07/04 10:50:01;;;;;;;;;;;;;;;32.17;47.15;100929.58;1681485;85;20723;-90
2022/07/04 11:00:19;;;;;;;;;;;;;;;32.67;44.08;100911.48;1729132;82;20168;-89
2022/07/04 11:13:09;;;;;;;;;;;;;;;32.60;40.75;100913.58;1737341;82;20421;-89
2022/07/04 11:23:28;;;;;;;;;;;;;;;31.54;45.03;100898.09;1765847;81;20145;-92
2022/07/04 11:26:28;;;;;;;;;;;;;;;32.01;44.41;100892.23;1765252;81;21132;-90
2022/07/04 11:29:22;;;;;;;;;;;;;;;32.28;43.43;100891.47;1740383;82;20207;-91
2022/07/04 11:31:52;;;;;;;;;;;;;;;32.45;42.93;100888.64;1746089;81;20363;-94
2022/07/04 11:34:20;;;;;;;;;;;;;;;32.46;43.04;100886.78;1760620;81;20162;-90
2022/07/04 11:46:15;;;;;;;;;;;;;;;32.71;41.94;100887.52;1726520;82;20163;-89
2022/07/04 11:48:44;;;;;;;;;;;;;;;32.52;40.27;100885.75;1753648;81;20141;-88
2022/07/04 11:51:18;;;;;;;;;;;;;;;32.34;38.93;100880.21;1719396;82;20146;-89
2022/07/04 11:53:54;;;;;;;;;;;;;;;32.24;39.48;100880.94;1756029;80;21140;-88
2022/07/04 11:56:22;;;;;;;;;;;;;;;32.20;40.58;100885.16;1768073;80;20169;-88
2022/07/04 11:58:49;;;;;;;;;;;;;;;32.13;40.09;100879.16;1742607;80;20148;-89
2022/07/04 12:01:20;;;;;;;;;;;;;;;32.07;40.53;100879.12;1723320;82;20170;-89
2022/07/04 12:03:52;;;;;;;;;;;;;;;32.12;43.42;100878.36;1775188;80;20505;-92
2022/07/04 12:06:19;;;;;;;;;;;;;;;32.24;44.02;100876.89;1754439;80;21164;-90
2022/07/04 12:08:48;;;;;;;;;;;;;;;32.37;41.39;100871.08;1741393;80;20160;-90
2022/07/04 12:11:15;;;;;;;;;;;;;;;32.44;41.32;100876.27;1720750;80;20192;-91
2022/07/04 12:13:44;;;;;;;;;;;;;;;32.43;42.60;100869.25;1730696;81;20173;-90
2022/07/04 12:19:24;;;;;;;;;;;;;;;32.59;43.22;100860.75;1725869;82;21813;-89
2022/07/04 12:22:20;;;;;;;;;;;;;;;32.71;42.98;100852.48;1738894;82;20214;-90
2022/07/04 12:25:17;;;;;;;;;;;;;;;32.88;40.72;100851.02;1750545;81;20222;-90
2022/07/04 12:28:17;;;;;;;;;;;;;;;33.07;42.21;100850.58;1756288;80;20201;-89
2022/07/04 12:34:18;;;;;;;;;;;;;;;33.12;38.17;100846.03;1738704;82;21156;-90
2022/07/04 12:41:00;;;;;;;;;;;;;;;33.15;40.26;100843.34;1716062;82;20171;-89
2022/07/04 12:44:11;;;;;;;;;;;;;;;33.10;39.21;100840.63;1731401;82;20193;-90
2022/07/04 12:47:11;;;;;;;;;;;;;;;33.10;39.41;100840.63;1722831;82;20147;-91
2022/07/04 12:49:44;;;;;;;;;;;;;;;33.15;40.38;100840.13;1714899;82;21133;-90
2022/07/04 12:52:14;;;;;;;;;;;;;;;33.21;39.86;100834.23;1729120;82;20205;-90
2022/07/04 12:54:47;;;;;;;;;;;;;;;33.26;40.88;100834.23;1749754;82;20143;-89
2022/07/04 13:04:49;;;;;;;;;;;;;;;33.56;38.75;100834.11;1725764;82;20212;-90
2022/07/04 13:07:17;;;;;;;;;;;;;;;33.52;36.87;100826.80;1721491;83;20490;-89
2022/07/04 13:10:19;;;;;;;;;;;;;;;33.44;37.58;100826.80;1731495;82;20135;-90
2022/07/04 13:13:14;;;;;;;;;;;;;;;33.43;37.42;100823.81;1743040;82;20163;-91
2022/07/04 13:19:19;;;;;;;;;;;;;;;33.36;38.42;100824.60;1735344;82;21297;-89
2022/07/04 13:21:48;;;;;;;;;;;;;;;32.56;38.46;100828.94;1718433;82;20189;-90
2022/07/04 13:24:44;;;;;;;;;;;;;;;31.93;37.31;100832.09;1703139;83;20190;-90
2022/07/04 13:27:39;;;;;;;;;;;;;;;31.57;38.79;100828.45;1699810;84;20185;-92
2022/07/04 13:40:57;;;;;;;;;;;;;;;32.68;37.75;100812.59;1728261;82;20175;-91
2022/07/04 13:43:28;;;;;;;;;;;;;;;32.90;39.12;100811.11;1726281;82;20202;-92
2022/07/04 13:45:56;;;;;;;;;;;;;;;32.89;40.04;100806.78;1731459;82;20481;-90
2022/07/04 13:48:27;;;;;;;;;;;;;;;32.86;38.77;100805.43;1733372;82;21734;-91
2022/07/04 13:51:00;;;;;;;;;;;;;;;32.84;38.64;100810.81;1711858;83;20495;-89
2022/07/04 13:53:27;;;;;;;;;;;;;;;32.75;39.99;100805.59;1694825;83;20175;-89
2022/07/04 13:55:54;;;;;;;;;;;;;;;32.55;40.44;100805.20;1708682;83;20178;-90
2022/07/04 13:58:51;;;;;;;;;;;;;;;32.38;40.47;100808.57;1722737;80;20144;-89
2022/07/04 14:01:47;;;;;;;;;;;;;;;32.38;39.84;100808.05;1717839;82;21762;-89
2022/07/04 14:04:14;;;;;;;;;;;;;;;32.43;40.74;100813.19;1707891;84;20178;-90
2022/07/04 14:06:41;;;;;;;;;;;;;;;32.38;41.27;100808.57;1713792;83;20213;-87
2022/07/04 14:09:08;;;;;;;;;;;;;;;32.25;40.38;100809.29;1699733;83;20142;-87
2022/07/04 14:12:03;;;;;;;;;;;;;;;32.01;39.06;100804.72;1710816;83;20221;-89
2022/07/04 14:18:23;;;;;;;;;;;;;;;31.89;40.46;100798.69;1689730;82;20171;-91
2022/07/04 14:21:18;;;;;;;;;;;;;;;32.00;38.97;100799.59;1702119;83;20435;-90
2022/07/04 14:23:48;;;;;;;;;;;;;;;32.18;39.39;100793.02;1722985;82;20190;-90
2022/07/04 14:29:56;;;;;;;;;;;;;;;32.38;39.91;100787.02;1749725;82;21246;-91
2022/07/04 14:32:59;;;;;;;;;;;;;;;32.39;39.97;100786.78;1750002;82;20143;-92
2022/07/04 14:35:27;;;;;;;;;;;;;;;32.34;39.08;100793.45;1751043;82;20547;-90
2022/07/04 14:49:23;;;;;;;;;;;;;;;32.34;39.30;100782.68;1743677;82;20551;-91
2022/07/04 14:52:31;;;;;;;;;;;;;;;32.30;39.83;100785.63;1743491;82;20464;-90
2022/07/04 14:58:57;;;;;;;;;;;;;;;32.29;40.71;100784.00;1767927;80;20259;-91
2022/07/04 15:01:24;;;;;;;;;;;;;;;32.12;40.11;100785.45;1783170;80;21094;-90
2022/07/04 15:08:18;;;;;;;;;;;;;;;31.80;39.24;100793.48;1783517;80;20165;-89
2022/07/04 15:14:48;;;;;;;;;;;;;;;31.05;41.61;100789.31;1743575;82;20626;-89
2022/07/04 15:17:17;;;;;;;;;;;;;;;30.99;40.82;100787.62;1766826;80;21113;-91
2022/07/04 15:25:16;;;;;;;;;;;;;;;31.08;42.22;100781.31;1750604;80;20181;-91
2022/07/04 15:27:42;;;;;;;;;;;;;;;31.08;42.60;100785.34;1710183;83;20218;-92
2022/07/04 15:30:12;;;;;;;;;;;;;;;31.08;41.71;100786.69;1713074;82;21127;-91
2022/07/04 15:32:39;;;;;;;;;;;;;;;31.09;40.97;100783.77;1726566;82;20473;-91
2022/07/04 15:35:10;;;;;;;;;;;;;;;31.11;42.10;100785.69;1719393;82;20144;-92
2022/07/04 15:37:38;;;;;;;;;;;;;;;31.14;42.23;100779.79;1733685;82;20186;-91
2022/07/04 15:40:06;;;;;;;;;;;;;;;31.15;41.40;100787.34;1733793;82;20171;-92